sensor_id;sensor_type;location;lat;lon;timestamp;pressure;altitude;pressure_sealevel;temperature;humidity
63512;BME280;49666;52.030;8.884;2023-11-19T18:06:37;99459.84;;;16.51;57.54
63512;BME280;49666;52.030;8.884;2023-11-19T18:09:03;99459.84;;;16.95;55.79
63512;BME280;49666;52.030;8.884;2023-11-19T18:11:36;99461.00;;;17.30;54.65
63512;BME280;49666;52.030;8.884;2023-11-19T18:14:01;99463.69;;;17.51;53.81
63512;BME280;49666;52.030;8.884;2023-11-19T18:16:27;99465.59;;;17.69;53.35
63512;BME280;49666;52.030;8.884;2023-11-19T18:18:52;99446.03;;;17.90;53.29
63512;BME280;49666;52.030;8.884;2023-11-19T18:21:41;99459.03;;;18.12;53.54
63512;BME280;49666;52.030;8.884;2023-11-19T18:24:07;99460.91;;;18.29;52.74
63512;BME280;49666;52.030;8.884;2023-11-19T18:57:50;99459.25;;;18.39;52.29
63512;BME280;49666;52.030;8.884;2023-11-19T19:10:34;99445.94;;;21.06;50.92
63512;BME280;49666;52.030;8.884;2023-11-19T19:13:02;99446.63;;;21.18;50.43
63512;BME280;49666;52.030;8.884;2023-11-19T19:15:27;99443.69;;;21.28;49.92
63512;BME280;49666;52.030;8.884;2023-11-19T19:17:53;99448.81;;;21.34;49.74
63512;BME280;49666;52.030;8.884;2023-11-19T19:20:19;99444.00;;;21.38;49.33
63512;BME280;49666;52.030;8.884;2023-11-19T19:22:45;99443.28;;;21.30;49.61
63512;BME280;49666;52.030;8.884;2023-11-19T19:25:11;99438.59;;;21.20;49.81
63512;BME280;49666;52.030;8.884;2023-11-19T19:27:36;99444.63;;;21.15;49.77
63512;BME280;49666;52.030;8.884;2023-11-19T19:30:02;99443.50;;;21.08;49.54
63512;BME280;49666;52.030;8.884;2023-11-19T19:32:27;99446.34;;;21.05;49.79
63512;BME280;49666;52.030;8.884;2023-11-19T19:34:53;99447.56;;;21.00;49.67
63512;BME280;49666;52.030;8.884;2023-11-19T19:37:18;99440.03;;;20.97;49.60
63512;BME280;49666;52.030;8.884;2023-11-19T19:39:44;99438.06;;;20.98;49.72
63512;BME280;49666;52.030;8.884;2023-11-19T19:42:09;99437.25;;;20.97;49.78
63512;BME280;49666;52.030;8.884;2023-11-19T19:44:35;99445.63;;;20.97;49.26
63512;BME280;49666;52.030;8.884;2023-11-19T19:47:00;99440.09;;;20.93;49.74
63512;BME280;49666;52.030;8.884;2023-11-19T19:49:26;99444.44;;;20.94;49.38
63512;BME280;49666;52.030;8.884;2023-11-19T19:51:52;99442.81;;;20.97;49.33
63512;BME280;49666;52.030;8.884;2023-11-19T19:54:17;99442.81;;;20.97;49.49
63512;BME280;49666;52.030;8.884;2023-11-19T19:56:43;99441.22;;;21.00;49.17
63512;BME280;49666;52.030;8.884;2023-11-19T19:59:08;99440.00;;;21.01;49.33
63512;BME280;49666;52.030;8.884;2023-11-19T20:01:34;99433.63;;;21.00;49.38
63512;BME280;49666;52.030;8.884;2023-11-19T20:03:59;99437.22;;;21.01;49.27
63512;BME280;49666;52.030;8.884;2023-11-19T20:06:25;99434.44;;;21.01;49.44
63512;BME280;49666;52.030;8.884;2023-11-19T20:08:51;99432.84;;;21.00;49.42
63512;BME280;49666;52.030;8.884;2023-11-19T20:11:17;99429.25;;;20.99;49.50
63512;BME280;49666;52.030;8.884;2023-11-19T20:13:42;99424.09;;;20.98;49.42
63512;BME280;49666;52.030;8.884;2023-11-19T20:16:11;99424.09;;;20.98;49.53
63512;BME280;49666;52.030;8.884;2023-11-19T20:18:37;99424.91;;;20.94;49.73
63512;BME280;49666;52.030;8.884;2023-11-19T20:21:02;99418.13;;;20.96;49.75
63512;BME280;49666;52.030;8.884;2023-11-19T20:23:29;99411.38;;;20.93;49.75
63512;BME280;49666;52.030;8.884;2023-11-19T20:25:55;99415.00;;;20.90;49.80
63512;BME280;49666;52.030;8.884;2023-11-19T20:28:20;99409.41;;;20.90;50.07
63512;BME280;49666;52.030;8.884;2023-11-19T20:30:46;99406.25;;;20.88;50.16
63512;BME280;49666;52.030;8.884;2023-11-19T20:33:11;99401.09;;;20.86;49.98
63512;BME280;49666;52.030;8.884;2023-11-19T20:35:37;99403.88;;;20.86;50.04
63512;BME280;49666;52.030;8.884;2023-11-19T20:38:04;99397.13;;;20.84;50.17
63512;BME280;49666;52.030;8.884;2023-11-19T20:40:29;99396.75;;;20.82;50.25
63512;BME280;49666;52.030;8.884;2023-11-19T20:42:55;99400.34;;;20.79;50.30
63512;BME280;49666;52.030;8.884;2023-11-19T20:45:20;99403.16;;;20.79;50.37
63512;BME280;49666;52.030;8.884;2023-11-19T20:47:47;99409.16;;;20.77;50.06
63512;BME280;49666;52.030;8.884;2023-11-19T20:50:14;99411.94;;;20.77;50.43
63512;BME280;49666;52.030;8.884;2023-11-19T20:52:40;99409.97;;;20.77;50.20
63512;BME280;49666;52.030;8.884;2023-11-19T20:55:06;99400.00;;;20.76;50.06
63512;BME280;49666;52.030;8.884;2023-11-19T20:57:32;99404.78;;;20.76;50.13
63512;BME280;49666;52.030;8.884;2023-11-19T20:59:57;99402.38;;;20.74;50.37
63512;BME280;49666;52.030;8.884;2023-11-19T21:02:22;99407.19;;;20.74;49.96
63512;BME280;49666;52.030;8.884;2023-11-19T21:04:48;99405.59;;;20.73;50.28
63512;BME280;49666;52.030;8.884;2023-11-19T21:07:13;99398.44;;;20.72;50.10
63512;BME280;49666;52.030;8.884;2023-11-19T21:09:39;99404.06;;;20.68;50.04
63512;BME280;49666;52.030;8.884;2023-11-19T21:12:05;99400.06;;;20.66;49.94
63512;BME280;49666;52.030;8.884;2023-11-19T21:14:31;99390.91;;;20.65;49.87
63512;BME280;49666;52.030;8.884;2023-11-19T21:16:58;99395.72;;;20.61;49.97
63512;BME280;49666;52.030;8.884;2023-11-19T21:19:23;99386.19;;;20.58;50.18
63512;BME280;49666;52.030;8.884;2023-11-19T21:21:49;99380.59;;;20.58;50.14
63512;BME280;49666;52.030;8.884;2023-11-19T21:24:14;99382.66;;;20.54;50.24
63512;BME280;49666;52.030;8.884;2023-11-19T21:26:39;99387.00;;;20.55;49.85
63512;BME280;49666;52.030;8.884;2023-11-19T21:29:07;99372.69;;;20.53;49.68
63512;BME280;49666;52.030;8.884;2023-11-19T21:31:32;99375.09;;;20.51;49.98
63512;BME280;49666;52.030;8.884;2023-11-19T21:33:57;99364.75;;;20.48;49.91
63512;BME280;49666;52.030;8.884;2023-11-19T21:36:24;99373.53;;;20.47;50.14
63512;BME280;49666;52.030;8.884;2023-11-19T21:38:49;99373.13;;;20.48;50.02
63512;BME280;49666;52.030;8.884;2023-11-19T21:41:15;99367.19;;;20.46;50.03
63512;BME280;49666;52.030;8.884;2023-11-19T21:43:40;99365.22;;;20.43;50.06
63512;BME280;49666;52.030;8.884;2023-11-19T21:46:06;99366.03;;;20.40;50.40
63512;BME280;49666;52.030;8.884;2023-11-19T21:48:31;99358.88;;;20.39;49.97
63512;BME280;49666;52.030;8.884;2023-11-19T21:50:56;99357.66;;;20.40;49.97
63512;BME280;49666;52.030;8.884;2023-11-19T21:53:26;99352.47;;;20.42;49.96
63512;BME280;49666;52.030;8.884;2023-11-19T21:55:51;99360.44;;;20.40;49.98
63512;BME280;49666;52.030;8.884;2023-11-19T21:58:17;99350.88;;;20.41;49.84
63512;BME280;49666;52.030;8.884;2023-11-19T22:00:42;99348.50;;;20.43;49.75
63512;BME280;49666;52.030;8.884;2023-11-19T22:03:07;99349.28;;;20.43;49.87
63512;BME280;49666;52.030;8.884;2023-11-19T22:05:32;99346.91;;;20.42;49.72
63512;BME280;49666;52.030;8.884;2023-11-19T22:07:58;99350.88;;;20.41;49.74
63512;BME280;49666;52.030;8.884;2023-11-19T22:10:23;99358.44;;;20.44;49.67
63512;BME280;49666;52.030;8.884;2023-11-19T22:12:49;99346.13;;;20.41;49.63
63512;BME280;49666;52.030;8.884;2023-11-19T22:15:14;99342.53;;;20.41;49.67
63512;BME280;49666;52.030;8.884;2023-11-19T22:17:39;99344.53;;;20.40;49.57
63512;BME280;49666;52.030;8.884;2023-11-19T22:20:05;99343.72;;;20.40;49.63
63512;BME280;49666;52.030;8.884;2023-11-19T22:22:32;99337.38;;;20.39;49.69
63512;BME280;49666;52.030;8.884;2023-11-19T22:24:58;99335.34;;;20.40;49.62
63512;BME280;49666;52.030;8.884;2023-11-19T22:27:23;99337.38;;;20.39;49.70
63512;BME280;49666;52.030;8.884;2023-11-19T22:29:49;99342.16;;;20.39;49.79
63512;BME280;49666;52.030;8.884;2023-11-19T22:32:14;99336.59;;;20.39;49.64
63512;BME280;49666;52.030;8.884;2023-11-19T22:34:39;99327.41;;;20.38;49.43
63512;BME280;49666;52.030;8.884;2023-11-19T22:37:05;99322.66;;;20.39;49.54
63512;BME280;49666;52.030;8.884;2023-11-19T22:39:30;99335.78;;;20.38;49.52
63512;BME280;49666;52.030;8.884;2023-11-19T22:41:55;99332.56;;;20.40;49.73
63512;BME280;49666;52.030;8.884;2023-11-19T22:44:21;99325.44;;;20.39;49.44
63512;BME280;49666;52.030;8.884;2023-11-19T22:46:49;99312.75;;;20.34;49.52
63512;BME280;49666;52.030;8.884;2023-11-19T22:49:15;99316.66;;;20.37;49.50
63512;BME280;49666;52.030;8.884;2023-11-19T22:51:40;99324.63;;;20.38;49.58
63512;BME280;49666;52.030;8.884;2023-11-19T22:54:06;99323.84;;;20.38;49.55
63512;BME280;49666;52.030;8.884;2023-11-19T22:56:31;99327.81;;;20.37;49.51
63512;BME280;49666;52.030;8.884;2023-11-19T22:58:57;99322.25;;;20.37;49.55
63512;BME280;49666;52.030;8.884;2023-11-19T23:01:22;99313.88;;;20.37;49.28
63512;BME280;49666;52.030;8.884;2023-11-19T23:03:47;99316.31;;;20.35;49.44
63512;BME280;49666;52.030;8.884;2023-11-19T23:06:13;99311.16;;;20.33;49.24
63512;BME280;49666;52.030;8.884;2023-11-19T23:08:38;99324.31;;;20.29;49.78
63512;BME280;49666;52.030;8.884;2023-11-19T23:11:05;99320.75;;;20.29;49.54
63512;BME280;49666;52.030;8.884;2023-11-19T23:13:31;99314.38;;;20.28;49.74
63512;BME280;49666;52.030;8.884;2023-11-19T23:15:58;99323.97;;;20.27;49.39
63512;BME280;49666;52.030;8.884;2023-11-19T23:18:27;99312.00;;;20.27;49.23
63512;BME280;49666;52.030;8.884;2023-11-19T23:20:53;99312.03;;;20.23;49.50
63512;BME280;49666;52.030;8.884;2023-11-19T23:23:18;99315.63;;;20.23;49.84
63512;BME280;49666;52.030;8.884;2023-11-19T23:25:44;99320.00;;;20.21;49.44
63512;BME280;49666;52.030;8.884;2023-11-19T23:28:09;99320.81;;;20.21;49.54
63512;BME280;49666;52.030;8.884;2023-11-19T23:30:35;99315.63;;;20.20;49.66
63512;BME280;49666;52.030;8.884;2023-11-19T23:33:01;99328.78;;;20.19;49.54
63512;BME280;49666;52.030;8.884;2023-11-19T23:35:27;99326.41;;;20.18;49.46
63512;BME280;49666;52.030;8.884;2023-11-19T23:37:52;99326.41;;;20.18;49.17
63512;BME280;49666;52.030;8.884;2023-11-19T23:40:17;99328.06;;;20.12;49.61
63512;BME280;49666;52.030;8.884;2023-11-19T23:42:44;99328.84;;;20.12;49.59
63512;BME280;49666;52.030;8.884;2023-11-19T23:45:10;99333.63;;;20.12;49.31
63512;BME280;49666;52.030;8.884;2023-11-19T23:47:35;99326.47;;;20.11;49.42
63512;BME280;49666;52.030;8.884;2023-11-19T23:50:01;99331.25;;;20.10;49.59
63512;BME280;49666;52.030;8.884;2023-11-19T23:52:26;99327.66;;;20.10;49.40
63512;BME280;49666;52.030;8.884;2023-11-19T23:54:52;99328.91;;;20.08;49.34
63512;BME280;49666;52.030;8.884;2023-11-19T23:57:17;99328.91;;;20.08;49.24
63512;BME280;49666;52.030;8.884;2023-11-19T23:59:42;99324.13;;;20.05;49.51
